Terminal Aerodrome Forecast
Issued by NWS

Home | Current Version | Previous Version | Text Only | Print | Product List | Glossary On
Versions: 1 2 3 4 5 6 7 8 9 10 11 12 13 14
000
FTUS46 KPDT 022300
TAFDLS
TAF
KDLS 022327Z 0300/0324 30007KT P6SM VCSH OVC100
     FM030600 VRB06KT P6SM SCT100 BKN250
     FM031500 30007KT P6SM SCT250=

USA.gov is the U.S. government's official web portal to all federal, state and local government web resources and services.